Terminal Aerodrome Forecast
Issued by NWS St Louis, MO

Home | Current Version | Previous Version | Text Only | Print | Product List | Glossary On
Versions: 1 2 3 4 5 6 7 8 9 10 11 12 13 14 15 16 17
000
FTUS43 KLSX 162300
TAFCOU
TAF
KCOU 162320Z 1700/1724 VRB03KT P6SM SKC
     FM171000 VRB03KT 4SM BR FEW050
     FM171400 13007KT P6SM SCT040=

USA.gov is the U.S. government's official web portal to all federal, state and local government web resources and services.